createdAt,value
2018-07-23T00:02:40.806Z,15.90
2018-07-23T00:05:45.024Z,15.90
2018-07-23T00:08:49.296Z,15.90
2018-07-23T00:11:53.525Z,15.80
2018-07-23T00:14:57.773Z,15.80
2018-07-23T00:18:01.987Z,15.80
2018-07-23T00:21:06.219Z,15.80
2018-07-23T00:24:10.441Z,15.70
2018-07-23T00:27:14.673Z,15.70
2018-07-23T00:30:18.921Z,15.70
2018-07-23T00:33:23.153Z,15.70
2018-07-23T00:36:27.355Z,15.80
2018-07-23T00:39:31.614Z,15.80
2018-07-23T00:42:35.832Z,15.70
2018-07-23T00:45:40.061Z,15.80
2018-07-23T00:48:44.275Z,15.80
2018-07-23T00:51:48.528Z,15.70
2018-07-23T00:54:52.749Z,15.60
2018-07-23T00:57:56.976Z,15.50
2018-07-23T01:01:01.185Z,15.50
2018-07-23T01:04:05.389Z,15.40
2018-07-23T01:07:09.653Z,15.30
2018-07-23T01:10:13.886Z,15.30
2018-07-23T01:13:18.128Z,15.20
2018-07-23T01:16:22.353Z,15.20
2018-07-23T01:19:26.576Z,15.20
2018-07-23T01:22:30.818Z,15.10
2018-07-23T01:25:35.069Z,15.20
2018-07-23T01:28:39.296Z,15.10
2018-07-23T01:31:43.566Z,15.10
2018-07-23T01:34:47.930Z,15.00
2018-07-23T01:37:52.201Z,15.00
2018-07-23T01:40:56.404Z,15.00
2018-07-23T01:44:00.632Z,14.90
2018-07-23T01:47:05.601Z,14.90
2018-07-23T01:50:09.856Z,14.90
2018-07-23T01:53:14.074Z,14.80
2018-07-23T01:56:18.307Z,14.70
2018-07-23T02:02:26.929Z,14.70
2018-07-23T02:05:31.177Z,14.70
2018-07-23T02:08:35.402Z,14.60
2018-07-23T02:11:39.632Z,14.70
2018-07-23T02:14:43.840Z,14.60
2018-07-23T02:17:48.059Z,14.70
2018-07-23T02:20:52.804Z,14.60
2018-07-23T02:23:57.153Z,14.70
2018-07-23T02:27:01.398Z,14.60
2018-07-23T02:30:06.024Z,14.60
2018-07-23T02:33:10.277Z,14.60
2018-07-23T02:36:14.548Z,14.70
2018-07-23T02:39:18.779Z,14.70
2018-07-23T02:42:23.001Z,14.60
2018-07-23T02:48:31.229Z,14.60
2018-07-23T02:51:35.461Z,14.60
2018-07-23T02:54:39.690Z,14.70
2018-07-23T02:57:43.943Z,14.70
2018-07-23T03:00:48.182Z,14.80
2018-07-23T03:03:56.482Z,14.80
2018-07-23T03:07:00.690Z,14.80
2018-07-23T03:10:05.113Z,14.80
2018-07-23T03:13:09.325Z,14.80
2018-07-23T03:16:13.576Z,14.80
2018-07-23T03:19:17.818Z,14.80
2018-07-23T03:22:22.057Z,14.90
2018-07-23T03:25:26.308Z,14.90
2018-07-23T03:28:30.517Z,14.90
2018-07-23T03:31:34.745Z,14.90
2018-07-23T03:34:38.941Z,15.00
2018-07-23T03:37:43.197Z,15.00
2018-07-23T03:40:47.417Z,15.00
2018-07-23T03:43:51.692Z,15.10
2018-07-23T03:46:55.929Z,15.10
2018-07-23T03:50:00.144Z,15.20
2018-07-23T03:53:04.327Z,15.20
2018-07-23T03:56:08.565Z,15.30
2018-07-23T03:59:12.845Z,15.30
2018-07-23T04:02:17.061Z,15.40
2018-07-23T04:05:21.308Z,15.40
2018-07-23T04:08:25.524Z,15.50
2018-07-23T04:11:29.806Z,15.50
2018-07-23T04:14:34.033Z,15.50
2018-07-23T04:17:38.276Z,15.50
2018-07-23T04:20:42.473Z,15.60
2018-07-23T04:23:46.725Z,15.60
2018-07-23T04:26:50.968Z,15.60
2018-07-23T04:29:55.180Z,15.60
2018-07-23T04:32:59.392Z,15.60
2018-07-23T04:36:03.609Z,15.60
2018-07-23T04:39:08.761Z,15.70
2018-07-23T04:42:12.974Z,15.70
2018-07-23T04:45:17.184Z,15.80
2018-07-23T04:48:21.414Z,15.80
2018-07-23T04:51:25.630Z,15.90
2018-07-23T04:54:29.864Z,15.90
2018-07-23T04:57:34.113Z,16.00
2018-07-23T05:00:38.333Z,16.10
2018-07-23T05:03:42.561Z,16.30
2018-07-23T05:06:46.813Z,16.40
2018-07-23T05:09:51.023Z,16.60
2018-07-23T05:12:55.240Z,16.80
2018-07-23T05:15:59.480Z,16.90
2018-07-23T05:19:04.615Z,17.10
2018-07-23T05:22:08.869Z,17.30
2018-07-23T05:25:13.148Z,17.60
2018-07-23T05:28:17.377Z,17.90
2018-07-23T05:31:21.625Z,18.00
2018-07-23T05:34:25.852Z,18.20
2018-07-23T05:37:30.180Z,18.40
2018-07-23T05:40:34.428Z,18.50
2018-07-23T05:43:38.645Z,18.80
2018-07-23T05:46:42.885Z,18.90
2018-07-23T05:49:47.081Z,19.10
2018-07-23T05:52:51.321Z,19.30
2018-07-23T05:55:55.525Z,19.50
2018-07-23T05:58:59.819Z,19.60
2018-07-23T06:02:03.989Z,19.60
2018-07-23T06:05:08.242Z,19.70
2018-07-23T06:08:12.465Z,19.60
2018-07-23T06:11:16.721Z,19.60
2018-07-23T06:14:21.369Z,19.60
2018-07-23T06:17:25.625Z,19.60
2018-07-23T06:20:29.932Z,19.60
2018-07-23T06:23:34.532Z,19.70
2018-07-23T06:26:38.757Z,19.70
2018-07-23T06:29:42.990Z,19.70
2018-07-23T06:32:47.202Z,19.70
2018-07-23T06:35:51.451Z,19.70
2018-07-23T06:38:55.689Z,19.70
2018-07-23T06:41:59.909Z,19.70
2018-07-23T06:45:04.205Z,19.80
2018-07-23T06:48:08.461Z,20.00
2018-07-23T06:51:12.761Z,20.00
2018-07-23T06:54:17.001Z,20.10
2018-07-23T06:57:21.282Z,20.30
2018-07-23T07:00:25.530Z,20.30
2018-07-23T07:03:29.801Z,20.50
2018-07-23T07:06:34.070Z,20.60
2018-07-23T07:09:38.311Z,20.70
2018-07-23T07:12:42.525Z,20.80
2018-07-23T07:15:46.733Z,20.80
2018-07-23T07:18:50.961Z,20.80
2018-07-23T07:21:55.193Z,20.90
2018-07-23T07:24:59.432Z,20.90
2018-07-23T07:28:03.696Z,21.10
2018-07-23T07:31:07.936Z,21.30
2018-07-23T07:34:12.181Z,21.40
2018-07-23T07:37:16.459Z,21.50
2018-07-23T07:40:20.805Z,21.40
2018-07-23T07:43:25.030Z,21.60
2018-07-23T07:46:29.313Z,21.90
2018-07-23T07:49:33.538Z,21.90
2018-07-23T07:52:37.732Z,21.90
2018-07-23T07:55:41.015Z,21.90
2018-07-23T07:58:45.231Z,21.90
2018-07-23T08:01:49.445Z,22.00
2018-07-23T08:04:53.674Z,22.10
2018-07-23T08:07:57.922Z,22.10
2018-07-23T08:11:02.154Z,22.10
2018-07-23T08:14:06.425Z,22.20
2018-07-23T08:17:10.645Z,22.20
2018-07-23T08:20:14.876Z,22.10
2018-07-23T08:23:19.094Z,22.20
2018-07-23T08:26:23.316Z,22.20
2018-07-23T08:29:27.529Z,22.10
2018-07-23T08:32:31.777Z,22.20
2018-07-23T08:35:35.976Z,22.10
2018-07-23T08:38:40.273Z,22.00
2018-07-23T08:41:44.468Z,22.00
2018-07-23T08:44:48.800Z,22.00
2018-07-23T08:47:52.993Z,21.90
2018-07-23T08:50:57.197Z,21.80
2018-07-23T08:54:01.456Z,21.80
2018-07-23T08:57:05.759Z,21.80
2018-07-23T09:00:10.009Z,21.70
2018-07-23T09:03:14.256Z,21.70
2018-07-23T09:06:18.474Z,21.70
2018-07-23T09:09:22.699Z,21.60
2018-07-23T09:12:26.948Z,21.70
2018-07-23T09:15:31.177Z,21.70
2018-07-23T09:21:39.452Z,21.70
2018-07-23T09:24:43.685Z,21.80
2018-07-23T09:27:47.928Z,21.80
2018-07-23T09:30:54.141Z,21.90
2018-07-23T09:33:58.385Z,21.90
2018-07-23T09:37:02.619Z,22.00
2018-07-23T09:40:06.985Z,22.20
2018-07-23T09:43:11.240Z,22.40
2018-07-23T09:46:15.524Z,22.60
2018-07-23T09:49:19.740Z,22.70
2018-07-23T09:52:23.997Z,22.80
2018-07-23T09:55:28.232Z,22.80
2018-07-23T09:58:32.473Z,22.70
2018-07-23T10:04:40.786Z,22.80
2018-07-23T10:07:45.015Z,23.00
2018-07-23T10:10:49.309Z,23.00
2018-07-23T10:13:53.505Z,23.10
2018-07-23T10:16:57.788Z,23.10
2018-07-23T10:20:01.990Z,23.10
2018-07-23T10:23:06.238Z,23.20
2018-07-23T10:26:10.472Z,23.20
2018-07-23T10:29:14.698Z,23.30
2018-07-23T10:32:18.913Z,23.30
2018-07-23T10:35:23.250Z,23.30
2018-07-23T10:38:27.499Z,23.50
2018-07-23T10:41:31.780Z,23.70
2018-07-23T10:44:36.030Z,23.70
2018-07-23T10:47:40.244Z,23.80
2018-07-23T10:50:44.484Z,23.90
2018-07-23T10:53:48.728Z,24.00
2018-07-23T10:56:52.972Z,23.90
2018-07-23T10:59:57.288Z,23.90
2018-07-23T11:03:01.564Z,24.10
2018-07-23T11:09:09.837Z,24.30
2018-07-23T11:12:14.085Z,24.20
2018-07-23T11:15:18.341Z,24.30
2018-07-23T11:18:22.609Z,24.40
2018-07-23T11:21:26.831Z,24.40
2018-07-23T11:24:31.080Z,24.40
2018-07-23T11:27:35.645Z,24.30
2018-07-23T11:30:39.919Z,24.20
2018-07-23T11:33:44.148Z,24.20
2018-07-23T11:36:48.417Z,24.10
2018-07-23T11:39:52.661Z,24.30
2018-07-23T11:42:56.917Z,24.40
2018-07-23T11:46:01.144Z,24.60
2018-07-23T11:49:06.005Z,24.80
2018-07-23T11:52:14.362Z,24.90
2018-07-23T11:55:14.525Z,24.80
2018-07-23T11:58:18.745Z,24.90
2018-07-23T12:01:22.964Z,25.00
2018-07-23T12:04:27.208Z,25.30
2018-07-23T12:07:31.497Z,25.40
2018-07-23T12:10:35.740Z,25.60
2018-07-23T12:13:39.989Z,25.70
2018-07-23T12:16:44.228Z,25.70
2018-07-23T12:19:48.485Z,25.60
2018-07-23T12:22:52.741Z,25.50
2018-07-23T12:29:01.089Z,25.40
2018-07-23T12:32:05.328Z,25.60
2018-07-23T12:35:09.593Z,25.80
2018-07-23T12:38:13.891Z,25.70
2018-07-23T12:41:18.185Z,25.60
2018-07-23T12:44:22.437Z,25.60
2018-07-23T12:47:26.753Z,25.60
2018-07-23T12:50:30.965Z,25.70
2018-07-23T12:53:35.250Z,26.00
2018-07-23T12:56:39.444Z,26.10
2018-07-23T12:59:43.726Z,26.00
2018-07-23T13:02:47.969Z,25.90
2018-07-23T13:05:52.228Z,25.90
2018-07-23T13:08:56.514Z,26.00
2018-07-23T13:12:00.773Z,26.10
2018-07-23T13:15:05.537Z,26.20
2018-07-23T13:18:09.753Z,26.30
2018-07-23T13:21:13.988Z,26.40
2018-07-23T13:24:18.247Z,26.50
2018-07-23T13:27:22.501Z,26.50
2018-07-23T13:30:26.781Z,26.40
2018-07-23T13:33:31.050Z,26.50
2018-07-23T13:36:35.308Z,26.40
2018-07-23T13:42:43.604Z,26.20
2018-07-23T13:45:47.841Z,26.10
2018-07-23T13:48:52.079Z,26.20
2018-07-23T13:51:56.331Z,26.20
2018-07-23T13:55:00.558Z,26.10
2018-07-23T13:58:04.809Z,26.10
2018-07-23T14:01:09.063Z,26.10
2018-07-23T14:04:13.355Z,26.10
2018-07-23T14:07:17.644Z,26.30
2018-07-23T14:10:21.891Z,26.60
2018-07-23T14:13:26.166Z,26.70
2018-07-23T14:16:30.404Z,26.80
2018-07-23T14:19:34.633Z,26.80
2018-07-23T14:22:38.917Z,27.00
2018-07-23T14:25:43.162Z,27.00
2018-07-23T14:28:47.433Z,27.00
2018-07-23T14:31:51.698Z,27.10
2018-07-23T14:34:55.932Z,27.10
2018-07-23T14:38:00.189Z,27.10
2018-07-23T14:41:04.464Z,27.10
2018-07-23T14:44:08.849Z,27.20
2018-07-23T14:47:13.093Z,27.30
2018-07-23T14:50:17.348Z,27.40
2018-07-23T14:53:21.569Z,27.50
2018-07-23T14:56:25.813Z,27.20
2018-07-23T14:59:30.164Z,27.10
2018-07-23T15:02:34.417Z,27.20
2018-07-23T15:05:38.677Z,27.40
2018-07-23T15:08:42.893Z,27.60
2018-07-23T15:11:47.125Z,27.70
2018-07-23T15:14:51.356Z,27.90
2018-07-23T15:17:55.589Z,28.10
2018-07-23T15:20:59.852Z,28.40
2018-07-23T15:24:04.082Z,28.70
2018-07-23T15:27:08.441Z,28.70
2018-07-23T15:30:12.673Z,28.70
2018-07-23T15:33:16.980Z,28.60
2018-07-23T15:36:21.200Z,28.50
2018-07-23T15:39:25.457Z,28.40
2018-07-23T15:42:29.733Z,28.40
2018-07-23T15:45:34.178Z,28.30
2018-07-23T15:48:38.220Z,28.00
2018-07-23T15:51:42.462Z,27.90
2018-07-23T15:54:46.674Z,27.90
2018-07-23T15:57:50.911Z,27.80
2018-07-23T16:00:55.140Z,27.80
2018-07-23T16:03:59.647Z,27.80
2018-07-23T16:07:03.921Z,27.70
2018-07-23T16:10:08.196Z,27.60
2018-07-23T16:13:12.611Z,27.60
2018-07-23T16:16:16.941Z,27.50
2018-07-23T16:19:21.192Z,27.50
2018-07-23T16:25:29.476Z,26.80
2018-07-23T16:28:33.765Z,26.70
2018-07-23T16:31:38.034Z,26.50
2018-07-23T16:34:42.285Z,26.40
2018-07-23T16:37:46.541Z,26.40
2018-07-23T16:40:50.857Z,26.20
2018-07-23T16:43:55.083Z,26.20
2018-07-23T16:46:59.385Z,26.00
2018-07-23T16:50:03.768Z,25.80
2018-07-23T16:53:08.509Z,25.60
2018-07-23T16:56:12.741Z,25.40
2018-07-23T17:02:20.972Z,25.30
2018-07-23T17:05:25.204Z,25.30
2018-07-23T17:08:29.444Z,25.20
2018-07-23T17:11:33.669Z,25.10
2018-07-23T17:14:37.915Z,25.00
2018-07-23T17:17:42.175Z,24.90
2018-07-23T17:20:46.390Z,24.90
2018-07-23T17:23:50.638Z,24.90
2018-07-23T17:26:54.916Z,24.90
2018-07-23T17:29:59.154Z,25.00
2018-07-23T17:33:03.392Z,24.90
2018-07-23T17:36:07.653Z,24.90
2018-07-23T17:39:12.840Z,24.70
2018-07-23T17:42:17.266Z,24.70
2018-07-23T17:45:21.545Z,24.60
2018-07-23T17:48:25.905Z,24.50
2018-07-23T17:51:30.157Z,24.40
2018-07-23T17:54:34.412Z,24.30
2018-07-23T17:57:38.689Z,24.30
2018-07-23T18:00:43.194Z,24.20
2018-07-23T18:03:47.453Z,24.00
2018-07-23T18:06:51.750Z,23.90
2018-07-23T18:09:56.036Z,23.80
2018-07-23T18:13:00.270Z,23.80
2018-07-23T18:16:04.476Z,23.70
2018-07-23T18:19:08.771Z,23.70
2018-07-23T18:22:13.096Z,23.60
2018-07-23T18:25:17.383Z,23.60
2018-07-23T18:28:21.840Z,23.60
2018-07-23T18:31:26.133Z,23.50
2018-07-23T18:34:30.406Z,23.30
2018-07-23T18:37:34.942Z,23.20
2018-07-23T18:40:39.227Z,23.20
2018-07-23T18:43:43.571Z,23.10
2018-07-23T18:46:47.857Z,23.00
2018-07-23T18:49:56.523Z,22.90
2018-07-23T18:53:00.773Z,22.90
2018-07-23T18:56:05.203Z,22.80
2018-07-23T18:59:10.113Z,22.70
2018-07-23T19:02:18.625Z,22.60
2018-07-23T19:05:22.942Z,22.50
2018-07-23T19:08:27.241Z,22.40
2018-07-23T19:11:31.451Z,22.30
2018-07-23T19:14:35.708Z,22.10
2018-07-23T19:17:39.973Z,22.10
2018-07-23T19:20:44.254Z,22.00
2018-07-23T19:23:48.503Z,22.00
2018-07-23T19:26:52.773Z,21.90
2018-07-23T19:29:57.110Z,21.90
2018-07-23T19:33:01.417Z,21.80
2018-07-23T19:36:05.634Z,21.80
2018-07-23T19:39:12.707Z,21.70
2018-07-23T19:42:17.024Z,21.60
2018-07-23T19:45:21.268Z,21.60
2018-07-23T19:48:25.548Z,21.50
2018-07-23T19:51:29.816Z,21.50
2018-07-23T19:54:34.137Z,21.40
2018-07-23T19:57:38.389Z,21.40
2018-07-23T20:00:42.656Z,21.40
2018-07-23T20:03:46.929Z,21.30
2018-07-23T20:06:51.144Z,21.20
2018-07-23T20:09:55.387Z,21.20
2018-07-23T20:12:59.622Z,21.10
2018-07-23T20:16:03.866Z,21.00
2018-07-23T20:19:08.084Z,21.00
2018-07-23T20:22:12.300Z,20.90
2018-07-23T20:25:16.521Z,20.80
2018-07-23T20:28:20.756Z,20.80
2018-07-23T20:31:25.016Z,20.80
2018-07-23T20:34:29.257Z,20.70
2018-07-23T20:37:33.487Z,20.70
2018-07-23T20:40:37.748Z,20.60
2018-07-23T20:43:41.912Z,20.50
2018-07-23T20:46:46.143Z,20.50
2018-07-23T20:49:50.401Z,20.40
2018-07-23T20:52:54.668Z,20.30
2018-07-23T20:55:58.868Z,20.30
2018-07-23T20:59:03.101Z,20.20
2018-07-23T21:02:07.449Z,20.20
2018-07-23T21:05:11.701Z,20.10
2018-07-23T21:08:15.916Z,20.00
2018-07-23T21:11:20.157Z,19.90
2018-07-23T21:14:24.352Z,19.90
2018-07-23T21:17:28.600Z,19.80
2018-07-23T21:20:32.796Z,19.80
2018-07-23T21:23:37.016Z,19.70
2018-07-23T21:26:41.241Z,19.70
2018-07-23T21:29:45.485Z,19.60
2018-07-23T21:32:49.684Z,19.50
2018-07-23T21:35:53.896Z,19.50
2018-07-23T21:38:58.084Z,19.40
2018-07-23T21:42:02.320Z,19.40
2018-07-23T21:45:07.155Z,19.40
2018-07-23T21:48:11.375Z,19.40
2018-07-23T21:51:15.625Z,19.40
2018-07-23T21:54:19.861Z,19.30
2018-07-23T21:57:24.085Z,19.30
2018-07-23T22:00:28.297Z,19.30
2018-07-23T22:03:32.523Z,19.20
2018-07-23T22:06:36.738Z,19.20
2018-07-23T22:09:40.979Z,19.10
2018-07-23T22:12:45.227Z,19.10
2018-07-23T22:15:49.466Z,19.10
2018-07-23T22:18:53.677Z,19.10
2018-07-23T22:21:57.884Z,19.00
2018-07-23T22:25:02.142Z,19.00
2018-07-23T22:28:06.519Z,18.90
2018-07-23T22:31:10.748Z,18.90
2018-07-23T22:34:15.001Z,18.90
2018-07-23T22:37:19.280Z,18.80
2018-07-23T22:40:23.488Z,18.80
2018-07-23T22:43:27.689Z,18.80
2018-07-23T22:46:31.949Z,18.80
2018-07-23T22:49:36.176Z,18.70
2018-07-23T22:52:40.389Z,18.70
2018-07-23T22:55:44.614Z,18.60
2018-07-23T22:58:48.860Z,18.60
2018-07-23T23:01:53.115Z,18.50
2018-07-23T23:04:57.364Z,18.50
2018-07-23T23:08:01.572Z,18.50
2018-07-23T23:11:05.796Z,18.50
2018-07-23T23:14:09.998Z,18.40
2018-07-23T23:17:14.233Z,18.40
2018-07-23T23:20:18.429Z,18.30
2018-07-23T23:23:22.640Z,18.30
2018-07-23T23:26:26.857Z,18.30
2018-07-23T23:29:31.093Z,18.20
2018-07-23T23:32:36.107Z,18.30
2018-07-23T23:35:40.323Z,18.20
2018-07-23T23:38:45.060Z,18.20
2018-07-23T23:41:49.283Z,18.10
2018-07-23T23:44:53.485Z,18.10
2018-07-23T23:47:57.714Z,18.00
2018-07-23T23:51:01.969Z,18.00
2018-07-23T23:54:06.225Z,18.00
2018-07-23T23:57:10.451Z,17.90
